sensor_id;sensor_type;location;lat;lon;timestamp;temperature;humidity
20732;DHT22;10527;52.124;5.196;2023-03-04T00:01:08;6.50;99.90
20732;DHT22;10527;52.124;5.196;2023-03-04T00:03:35;6.50;99.90
20732;DHT22;10527;52.124;5.196;2023-03-04T00:06:02;6.60;99.90
20732;DHT22;10527;52.124;5.196;2023-03-04T00:08:30;6.50;99.90
20732;DHT22;10527;52.124;5.196;2023-03-04T00:10:57;6.60;99.90
20732;DHT22;10527;52.124;5.196;2023-03-04T00:13:24;6.60;99.90
20732;DHT22;10527;52.124;5.196;2023-03-04T00:15:50;6.50;99.90
20732;DHT22;10527;52.124;5.196;2023-03-04T00:18:18;6.50;99.90
20732;DHT22;10527;52.124;5.196;2023-03-04T00:20:51;6.50;99.90
20732;DHT22;10527;52.124;5.196;2023-03-04T00:23:18;6.50;99.90
20732;DHT22;10527;52.124;5.196;2023-03-04T00:25:45;6.50;99.90
20732;DHT22;10527;52.124;5.196;2023-03-04T00:28:12;6.40;99.90
20732;DHT22;10527;52.124;5.196;2023-03-04T00:30:38;6.40;99.90
20732;DHT22;10527;52.124;5.196;2023-03-04T00:33:05;6.40;99.90
20732;DHT22;10527;52.124;5.196;2023-03-04T00:35:35;6.40;99.90
20732;DHT22;10527;52.124;5.196;2023-03-04T00:38:02;6.40;99.90
20732;DHT22;10527;52.124;5.196;2023-03-04T00:40:31;6.40;99.90
20732;DHT22;10527;52.124;5.196;2023-03-04T00:43:01;6.40;99.90
20732;DHT22;10527;52.124;5.196;2023-03-04T00:45:28;6.50;99.90
20732;DHT22;10527;52.124;5.196;2023-03-04T00:47:55;6.40;99.90
20732;DHT22;10527;52.124;5.196;2023-03-04T00:50:21;6.40;99.90
20732;DHT22;10527;52.124;5.196;2023-03-04T00:52:48;6.40;99.90
20732;DHT22;10527;52.124;5.196;2023-03-04T00:55:15;6.40;99.90
20732;DHT22;10527;52.124;5.196;2023-03-04T00:57:42;6.40;99.90
20732;DHT22;10527;52.124;5.196;2023-03-04T01:00:09;6.40;99.90
20732;DHT22;10527;52.124;5.196;2023-03-04T01:02:42;6.50;99.90
20732;DHT22;10527;52.124;5.196;2023-03-04T01:05:09;6.40;99.90
20732;DHT22;10527;52.124;5.196;2023-03-04T01:07:37;6.30;99.90
20732;DHT22;10527;52.124;5.196;2023-03-04T01:10:06;6.30;99.90
20732;DHT22;10527;52.124;5.196;2023-03-04T01:12:34;6.30;99.90
20732;DHT22;10527;52.124;5.196;2023-03-04T01:15:01;6.30;99.90
20732;DHT22;10527;52.124;5.196;2023-03-04T01:17:29;6.30;99.90
20732;DHT22;10527;52.124;5.196;2023-03-04T01:19:56;6.30;99.90
20732;DHT22;10527;52.124;5.196;2023-03-04T01:22:23;6.30;99.90
20732;DHT22;10527;52.124;5.196;2023-03-04T01:24:50;6.40;99.90
20732;DHT22;10527;52.124;5.196;2023-03-04T01:27:16;6.40;99.90
20732;DHT22;10527;52.124;5.196;2023-03-04T01:29:43;6.40;99.90
20732;DHT22;10527;52.124;5.196;2023-03-04T01:32:10;6.40;99.90
20732;DHT22;10527;52.124;5.196;2023-03-04T01:34:37;6.40;99.90
20732;DHT22;10527;52.124;5.196;2023-03-04T01:37:08;6.40;99.90
20732;DHT22;10527;52.124;5.196;2023-03-04T01:39:37;6.40;99.90
20732;DHT22;10527;52.124;5.196;2023-03-04T01:42:18;6.40;99.90
20732;DHT22;10527;52.124;5.196;2023-03-04T01:44:46;6.50;99.90
20732;DHT22;10527;52.124;5.196;2023-03-04T01:47:14;6.40;99.90
20732;DHT22;10527;52.124;5.196;2023-03-04T01:49:43;6.30;99.90
20732;DHT22;10527;52.124;5.196;2023-03-04T01:52:16;6.40;99.90
20732;DHT22;10527;52.124;5.196;2023-03-04T01:54:43;6.40;99.90
20732;DHT22;10527;52.124;5.196;2023-03-04T01:57:22;6.30;99.90
20732;DHT22;10527;52.124;5.196;2023-03-04T02:00:13;6.30;99.90
20732;DHT22;10527;52.124;5.196;2023-03-04T02:02:43;6.30;99.90
20732;DHT22;10527;52.124;5.196;2023-03-04T02:05:10;6.30;99.90
20732;DHT22;10527;52.124;5.196;2023-03-04T02:07:37;6.30;99.90
20732;DHT22;10527;52.124;5.196;2023-03-04T02:10:05;6.30;99.90
20732;DHT22;10527;52.124;5.196;2023-03-04T02:12:40;6.30;99.90
20732;DHT22;10527;52.124;5.196;2023-03-04T02:15:07;6.20;99.90
20732;DHT22;10527;52.124;5.196;2023-03-04T02:17:37;6.30;99.90
20732;DHT22;10527;52.124;5.196;2023-03-04T02:28:45;6.30;99.90
20732;DHT22;10527;52.124;5.196;2023-03-04T02:33:55;6.20;99.90
20732;DHT22;10527;52.124;5.196;2023-03-04T02:36:25;6.20;99.90
20732;DHT22;10527;52.124;5.196;2023-03-04T02:38:54;6.20;99.90
20732;DHT22;10527;52.124;5.196;2023-03-04T02:41:25;6.30;99.90
20732;DHT22;10527;52.124;5.196;2023-03-04T02:43:55;6.20;99.90
20732;DHT22;10527;52.124;5.196;2023-03-04T02:46:22;6.20;99.90
20732;DHT22;10527;52.124;5.196;2023-03-04T02:48:50;6.30;99.90
20732;DHT22;10527;52.124;5.196;2023-03-04T02:51:18;6.20;99.90
20732;DHT22;10527;52.124;5.196;2023-03-04T02:53:45;6.20;99.90
20732;DHT22;10527;52.124;5.196;2023-03-04T02:56:14;6.20;99.90
20732;DHT22;10527;52.124;5.196;2023-03-04T02:58:44;6.20;99.90
20732;DHT22;10527;52.124;5.196;2023-03-04T03:01:10;6.20;99.90
20732;DHT22;10527;52.124;5.196;2023-03-04T03:03:37;6.20;99.90
20732;DHT22;10527;52.124;5.196;2023-03-04T03:06:04;6.20;99.90
20732;DHT22;10527;52.124;5.196;2023-03-04T03:08:31;6.20;99.90
20732;DHT22;10527;52.124;5.196;2023-03-04T03:10:58;6.20;99.90
20732;DHT22;10527;52.124;5.196;2023-03-04T03:13:25;6.20;99.90
20732;DHT22;10527;52.124;5.196;2023-03-04T03:15:51;6.20;99.90
20732;DHT22;10527;52.124;5.196;2023-03-04T03:18:21;6.30;99.90
20732;DHT22;10527;52.124;5.196;2023-03-04T03:20:51;6.20;99.90
20732;DHT22;10527;52.124;5.196;2023-03-04T03:23:21;6.20;99.90
20732;DHT22;10527;52.124;5.196;2023-03-04T03:25:50;6.20;99.90
20732;DHT22;10527;52.124;5.196;2023-03-04T03:28:19;6.30;99.90
20732;DHT22;10527;52.124;5.196;2023-03-04T03:30:48;6.30;99.90
20732;DHT22;10527;52.124;5.196;2023-03-04T03:33:16;6.30;99.90
20732;DHT22;10527;52.124;5.196;2023-03-04T03:35:46;6.40;99.90
20732;DHT22;10527;52.124;5.196;2023-03-04T03:38:15;6.40;99.90
20732;DHT22;10527;52.124;5.196;2023-03-04T03:40:45;6.30;99.90
20732;DHT22;10527;52.124;5.196;2023-03-04T03:43:13;6.30;99.90
20732;DHT22;10527;52.124;5.196;2023-03-04T03:45:39;6.30;99.90
20732;DHT22;10527;52.124;5.196;2023-03-04T03:48:09;6.20;99.90
20732;DHT22;10527;52.124;5.196;2023-03-04T03:50:36;6.30;99.90
20732;DHT22;10527;52.124;5.196;2023-03-04T03:53:04;6.20;99.90
20732;DHT22;10527;52.124;5.196;2023-03-04T03:55:34;6.30;99.90
20732;DHT22;10527;52.124;5.196;2023-03-04T03:58:04;6.20;99.90
20732;DHT22;10527;52.124;5.196;2023-03-04T04:00:31;6.20;99.90
20732;DHT22;10527;52.124;5.196;2023-03-04T04:02:59;6.20;99.90
20732;DHT22;10527;52.124;5.196;2023-03-04T04:05:26;6.10;99.90
20732;DHT22;10527;52.124;5.196;2023-03-04T04:07:56;6.10;99.90
20732;DHT22;10527;52.124;5.196;2023-03-04T04:10:23;6.20;99.90
20732;DHT22;10527;52.124;5.196;2023-03-04T04:12:49;6.10;99.90
20732;DHT22;10527;52.124;5.196;2023-03-04T04:15:19;6.20;99.90
20732;DHT22;10527;52.124;5.196;2023-03-04T04:17:46;6.20;99.90
20732;DHT22;10527;52.124;5.196;2023-03-04T04:20:13;6.20;99.90
20732;DHT22;10527;52.124;5.196;2023-03-04T04:22:40;6.20;99.90
20732;DHT22;10527;52.124;5.196;2023-03-04T04:25:07;6.20;99.90
20732;DHT22;10527;52.124;5.196;2023-03-04T04:27:38;6.20;99.90
20732;DHT22;10527;52.124;5.196;2023-03-04T04:30:06;6.10;99.90
20732;DHT22;10527;52.124;5.196;2023-03-04T04:32:35;6.10;99.90
20732;DHT22;10527;52.124;5.196;2023-03-04T04:35:02;6.10;99.90
20732;DHT22;10527;52.124;5.196;2023-03-04T04:37:31;6.10;99.90
20732;DHT22;10527;52.124;5.196;2023-03-04T04:40:12;6.00;99.90
20732;DHT22;10527;52.124;5.196;2023-03-04T04:42:39;6.00;99.90
20732;DHT22;10527;52.124;5.196;2023-03-04T04:45:06;6.10;99.90
20732;DHT22;10527;52.124;5.196;2023-03-04T04:47:34;6.10;99.90
20732;DHT22;10527;52.124;5.196;2023-03-04T04:50:01;6.10;99.90
20732;DHT22;10527;52.124;5.196;2023-03-04T04:52:28;6.10;99.90
20732;DHT22;10527;52.124;5.196;2023-03-04T04:54:54;6.10;99.90
20732;DHT22;10527;52.124;5.196;2023-03-04T04:57:21;6.10;99.90
20732;DHT22;10527;52.124;5.196;2023-03-04T04:59:48;6.10;99.90
20732;DHT22;10527;52.124;5.196;2023-03-04T05:02:15;6.10;99.90
20732;DHT22;10527;52.124;5.196;2023-03-04T05:04:45;6.10;99.90
20732;DHT22;10527;52.124;5.196;2023-03-04T05:07:12;6.10;99.90
20732;DHT22;10527;52.124;5.196;2023-03-04T05:09:39;6.10;99.90
20732;DHT22;10527;52.124;5.196;2023-03-04T05:12:05;6.00;99.90
20732;DHT22;10527;52.124;5.196;2023-03-04T05:14:34;6.00;99.90
20732;DHT22;10527;52.124;5.196;2023-03-04T05:17:01;6.00;99.90
20732;DHT22;10527;52.124;5.196;2023-03-04T05:19:27;6.00;99.90
20732;DHT22;10527;52.124;5.196;2023-03-04T05:21:55;6.00;99.90
20732;DHT22;10527;52.124;5.196;2023-03-04T05:24:25;6.00;99.90
20732;DHT22;10527;52.124;5.196;2023-03-04T05:26:52;6.00;99.90
20732;DHT22;10527;52.124;5.196;2023-03-04T05:29:19;6.00;99.90
20732;DHT22;10527;52.124;5.196;2023-03-04T05:31:49;6.00;99.90
20732;DHT22;10527;52.124;5.196;2023-03-04T05:34:16;6.00;99.90
20732;DHT22;10527;52.124;5.196;2023-03-04T05:36:43;6.00;99.90
20732;DHT22;10527;52.124;5.196;2023-03-04T05:39:10;6.00;99.90
20732;DHT22;10527;52.124;5.196;2023-03-04T05:41:37;6.00;99.90
20732;DHT22;10527;52.124;5.196;2023-03-04T05:44:04;6.00;99.90
20732;DHT22;10527;52.124;5.196;2023-03-04T05:46:31;6.00;99.90
20732;DHT22;10527;52.124;5.196;2023-03-04T05:48:59;6.00;99.90
20732;DHT22;10527;52.124;5.196;2023-03-04T05:51:26;6.00;99.90
20732;DHT22;10527;52.124;5.196;2023-03-04T05:53:53;6.00;99.90
20732;DHT22;10527;52.124;5.196;2023-03-04T05:56:22;6.10;99.90
20732;DHT22;10527;52.124;5.196;2023-03-04T05:58:49;6.00;99.90
20732;DHT22;10527;52.124;5.196;2023-03-04T06:01:16;6.00;99.90
20732;DHT22;10527;52.124;5.196;2023-03-04T06:03:43;6.00;99.90
20732;DHT22;10527;52.124;5.196;2023-03-04T06:06:10;6.00;99.90
20732;DHT22;10527;52.124;5.196;2023-03-04T06:08:39;5.90;99.90
20732;DHT22;10527;52.124;5.196;2023-03-04T06:11:06;6.00;99.90
20732;DHT22;10527;52.124;5.196;2023-03-04T06:13:34;5.90;99.90
20732;DHT22;10527;52.124;5.196;2023-03-04T06:16:01;5.90;99.90
20732;DHT22;10527;52.124;5.196;2023-03-04T06:18:28;6.00;99.90
20732;DHT22;10527;52.124;5.196;2023-03-04T06:20:59;6.00;99.90
20732;DHT22;10527;52.124;5.196;2023-03-04T06:23:28;6.00;99.90
20732;DHT22;10527;52.124;5.196;2023-03-04T06:25:57;6.00;99.90
20732;DHT22;10527;52.124;5.196;2023-03-04T06:28:26;6.00;99.90
20732;DHT22;10527;52.124;5.196;2023-03-04T06:30:55;6.00;99.90
20732;DHT22;10527;52.124;5.196;2023-03-04T06:33:26;6.00;99.90
20732;DHT22;10527;52.124;5.196;2023-03-04T06:35:55;6.00;99.90
20732;DHT22;10527;52.124;5.196;2023-03-04T06:38:23;6.00;99.90
20732;DHT22;10527;52.124;5.196;2023-03-04T06:40:50;6.00;99.90
20732;DHT22;10527;52.124;5.196;2023-03-04T06:43:18;6.00;99.90
20732;DHT22;10527;52.124;5.196;2023-03-04T06:45:45;5.90;99.90
20732;DHT22;10527;52.124;5.196;2023-03-04T06:48:12;6.00;99.90
20732;DHT22;10527;52.124;5.196;2023-03-04T06:50:39;6.00;99.90
20732;DHT22;10527;52.124;5.196;2023-03-04T06:53:06;6.00;99.90
20732;DHT22;10527;52.124;5.196;2023-03-04T06:55:33;6.00;99.90
20732;DHT22;10527;52.124;5.196;2023-03-04T06:58:01;6.10;99.90
20732;DHT22;10527;52.124;5.196;2023-03-04T07:00:28;6.10;99.90
20732;DHT22;10527;52.124;5.196;2023-03-04T07:02:55;6.10;99.90
20732;DHT22;10527;52.124;5.196;2023-03-04T07:05:23;6.10;99.90
20732;DHT22;10527;52.124;5.196;2023-03-04T07:07:53;6.10;99.90
20732;DHT22;10527;52.124;5.196;2023-03-04T07:10:20;6.10;99.90
20732;DHT22;10527;52.124;5.196;2023-03-04T07:12:47;6.10;99.90
20732;DHT22;10527;52.124;5.196;2023-03-04T07:15:14;5.90;99.90
20732;DHT22;10527;52.124;5.196;2023-03-04T07:17:43;5.90;99.90
20732;DHT22;10527;52.124;5.196;2023-03-04T07:20:10;6.00;99.90
20732;DHT22;10527;52.124;5.196;2023-03-04T07:22:38;5.90;99.90
20732;DHT22;10527;52.124;5.196;2023-03-04T07:25:05;6.00;99.90
20732;DHT22;10527;52.124;5.196;2023-03-04T07:27:32;6.00;99.90
20732;DHT22;10527;52.124;5.196;2023-03-04T07:30:01;6.00;99.90
20732;DHT22;10527;52.124;5.196;2023-03-04T07:32:28;6.00;99.90
20732;DHT22;10527;52.124;5.196;2023-03-04T07:34:55;6.10;99.90
20732;DHT22;10527;52.124;5.196;2023-03-04T07:37:22;6.10;99.90
20732;DHT22;10527;52.124;5.196;2023-03-04T07:39:51;6.20;99.90
20732;DHT22;10527;52.124;5.196;2023-03-04T07:42:18;6.20;99.90
20732;DHT22;10527;52.124;5.196;2023-03-04T07:44:46;6.20;99.90
20732;DHT22;10527;52.124;5.196;2023-03-04T07:47:13;6.20;99.90
20732;DHT22;10527;52.124;5.196;2023-03-04T07:49:40;6.30;99.90
20732;DHT22;10527;52.124;5.196;2023-03-04T07:52:06;6.40;99.90
20732;DHT22;10527;52.124;5.196;2023-03-04T07:54:37;6.30;99.90
20732;DHT22;10527;52.124;5.196;2023-03-04T07:57:04;6.30;99.90
20732;DHT22;10527;52.124;5.196;2023-03-04T07:59:33;6.30;99.90
20732;DHT22;10527;52.124;5.196;2023-03-04T08:02:04;6.40;99.90
20732;DHT22;10527;52.124;5.196;2023-03-04T08:04:30;6.40;99.90
20732;DHT22;10527;52.124;5.196;2023-03-04T08:06:57;6.40;99.90
20732;DHT22;10527;52.124;5.196;2023-03-04T08:09:24;6.50;99.90
20732;DHT22;10527;52.124;5.196;2023-03-04T08:11:51;6.40;99.90
20732;DHT22;10527;52.124;5.196;2023-03-04T08:14:18;6.50;99.90
20732;DHT22;10527;52.124;5.196;2023-03-04T08:16:51;6.50;99.90
20732;DHT22;10527;52.124;5.196;2023-03-04T08:19:21;6.40;99.90
20732;DHT22;10527;52.124;5.196;2023-03-04T08:21:50;6.50;99.90
20732;DHT22;10527;52.124;5.196;2023-03-04T08:24:20;6.60;99.90
20732;DHT22;10527;52.124;5.196;2023-03-04T08:26:48;6.50;99.90
20732;DHT22;10527;52.124;5.196;2023-03-04T08:29:19;6.50;99.90
20732;DHT22;10527;52.124;5.196;2023-03-04T08:31:48;6.60;99.90
20732;DHT22;10527;52.124;5.196;2023-03-04T08:34:17;6.60;99.90
20732;DHT22;10527;52.124;5.196;2023-03-04T08:36:59;6.60;99.90
20732;DHT22;10527;52.124;5.196;2023-03-04T08:39:28;6.70;99.90
20732;DHT22;10527;52.124;5.196;2023-03-04T08:42:11;6.80;99.90
20732;DHT22;10527;52.124;5.196;2023-03-04T08:44:38;6.70;99.90
20732;DHT22;10527;52.124;5.196;2023-03-04T08:47:05;6.80;99.90
20732;DHT22;10527;52.124;5.196;2023-03-04T08:49:35;7.00;99.90
20732;DHT22;10527;52.124;5.196;2023-03-04T08:52:02;7.00;99.90
20732;DHT22;10527;52.124;5.196;2023-03-04T08:54:29;7.00;99.90
20732;DHT22;10527;52.124;5.196;2023-03-04T08:56:56;7.10;99.90
20732;DHT22;10527;52.124;5.196;2023-03-04T08:59:25;7.10;99.90
20732;DHT22;10527;52.124;5.196;2023-03-04T09:01:55;7.20;99.90
20732;DHT22;10527;52.124;5.196;2023-03-04T09:04:22;7.10;99.90
20732;DHT22;10527;52.124;5.196;2023-03-04T09:06:50;7.10;99.90
20732;DHT22;10527;52.124;5.196;2023-03-04T09:09:25;7.00;99.90
20732;DHT22;10527;52.124;5.196;2023-03-04T09:11:52;7.10;99.90
20732;DHT22;10527;52.124;5.196;2023-03-04T09:14:19;7.10;99.90
20732;DHT22;10527;52.124;5.196;2023-03-04T09:16:45;7.00;99.90
20732;DHT22;10527;52.124;5.196;2023-03-04T09:19:12;6.90;99.90
20732;DHT22;10527;52.124;5.196;2023-03-04T09:21:50;6.90;99.90
20732;DHT22;10527;52.124;5.196;2023-03-04T09:24:17;6.90;99.90
20732;DHT22;10527;52.124;5.196;2023-03-04T09:26:44;6.90;99.90
20732;DHT22;10527;52.124;5.196;2023-03-04T09:29:11;6.90;99.90
20732;DHT22;10527;52.124;5.196;2023-03-04T09:31:38;7.10;99.90
20732;DHT22;10527;52.124;5.196;2023-03-04T09:34:05;7.10;99.90
20732;DHT22;10527;52.124;5.196;2023-03-04T09:36:31;7.10;99.90
20732;DHT22;10527;52.124;5.196;2023-03-04T09:39:03;7.10;99.90
20732;DHT22;10527;52.124;5.196;2023-03-04T09:46:50;7.10;99.90
20732;DHT22;10527;52.124;5.196;2023-03-04T09:49:20;7.20;99.90
20732;DHT22;10527;52.124;5.196;2023-03-04T09:55:05;7.30;99.90
20732;DHT22;10527;52.124;5.196;2023-03-04T10:00:55;7.40;99.90
20732;DHT22;10527;52.124;5.196;2023-03-04T10:03:42;7.30;99.90
20732;DHT22;10527;52.124;5.196;2023-03-04T10:06:20;7.40;99.90
20732;DHT22;10527;52.124;5.196;2023-03-04T10:09:03;7.60;99.90
20732;DHT22;10527;52.124;5.196;2023-03-04T10:11:45;7.60;99.90
20732;DHT22;10527;52.124;5.196;2023-03-04T10:17:07;7.80;99.90
20732;DHT22;10527;52.124;5.196;2023-03-04T10:19:54;7.90;99.90
20732;DHT22;10527;52.124;5.196;2023-03-04T10:22:38;8.00;99.90
20732;DHT22;10527;52.124;5.196;2023-03-04T10:25:30;8.10;99.90
20732;DHT22;10527;52.124;5.196;2023-03-04T10:31:14;8.20;99.90
20732;DHT22;10527;52.124;5.196;2023-03-04T10:33:42;8.00;99.90
20732;DHT22;10527;52.124;5.196;2023-03-04T10:36:32;7.80;99.90
20732;DHT22;10527;52.124;5.196;2023-03-04T10:39:27;7.80;99.90
20732;DHT22;10527;52.124;5.196;2023-03-04T10:42:27;7.90;99.90
20732;DHT22;10527;52.124;5.196;2023-03-04T10:44:57;7.70;99.90
20732;DHT22;10527;52.124;5.196;2023-03-04T10:47:32;7.60;99.90
20732;DHT22;10527;52.124;5.196;2023-03-04T10:50:24;7.70;99.90
20732;DHT22;10527;52.124;5.196;2023-03-04T10:52:59;7.80;99.90
20732;DHT22;10527;52.124;5.196;2023-03-04T10:55:43;7.80;99.90
20732;DHT22;10527;52.124;5.196;2023-03-04T10:58:14;7.70;99.90
20732;DHT22;10527;52.124;5.196;2023-03-04T11:00:57;7.60;99.90
20732;DHT22;10527;52.124;5.196;2023-03-04T11:03:34;7.60;99.90
20732;DHT22;10527;52.124;5.196;2023-03-04T11:06:16;7.60;99.90
20732;DHT22;10527;52.124;5.196;2023-03-04T11:08:56;7.80;99.90
20732;DHT22;10527;52.124;5.196;2023-03-04T11:11:38;7.90;99.90
20732;DHT22;10527;52.124;5.196;2023-03-04T11:14:37;8.00;99.90
20732;DHT22;10527;52.124;5.196;2023-03-04T11:17:24;8.00;99.90
20732;DHT22;10527;52.124;5.196;2023-03-04T11:23:32;8.10;99.90
20732;DHT22;10527;52.124;5.196;2023-03-04T11:26:23;8.10;99.90
20732;DHT22;10527;52.124;5.196;2023-03-04T11:31:47;8.00;99.90
20732;DHT22;10527;52.124;5.196;2023-03-04T11:34:47;7.80;99.90
20732;DHT22;10527;52.124;5.196;2023-03-04T11:40:12;7.50;99.90
20732;DHT22;10527;52.124;5.196;2023-03-04T11:42:53;7.50;99.90
20732;DHT22;10527;52.124;5.196;2023-03-04T11:57:52;7.90;99.90
20732;DHT22;10527;52.124;5.196;2023-03-04T12:06:44;8.30;99.90
20732;DHT22;10527;52.124;5.196;2023-03-04T12:19:17;8.20;99.90
20732;DHT22;10527;52.124;5.196;2023-03-04T12:21:55;7.80;99.90
20732;DHT22;10527;52.124;5.196;2023-03-04T12:25:02;7.70;99.90
20732;DHT22;10527;52.124;5.196;2023-03-04T12:28:24;7.80;99.90
20732;DHT22;10527;52.124;5.196;2023-03-04T12:31:18;7.60;99.90
20732;DHT22;10527;52.124;5.196;2023-03-04T12:42:37;7.50;99.90
20732;DHT22;10527;52.124;5.196;2023-03-04T12:48:41;7.80;99.90
20732;DHT22;10527;52.124;5.196;2023-03-04T12:51:32;7.80;99.90
20732;DHT22;10527;52.124;5.196;2023-03-04T12:57:19;7.80;99.90
20732;DHT22;10527;52.124;5.196;2023-03-04T13:03:22;7.90;99.90
20732;DHT22;10527;52.124;5.196;2023-03-04T13:08:54;8.40;99.90
20732;DHT22;10527;52.124;5.196;2023-03-04T13:17:00;8.60;99.90
20732;DHT22;10527;52.124;5.196;2023-03-04T13:19:56;8.40;99.90
20732;DHT22;10527;52.124;5.196;2023-03-04T13:33:47;7.90;99.90
20732;DHT22;10527;52.124;5.196;2023-03-04T13:36:33;8.00;99.90
20732;DHT22;10527;52.124;5.196;2023-03-04T13:39:37;7.90;99.90
20732;DHT22;10527;52.124;5.196;2023-03-04T13:42:40;8.10;99.90
20732;DHT22;10527;52.124;5.196;2023-03-04T13:47:56;8.20;99.90
20732;DHT22;10527;52.124;5.196;2023-03-04T13:50:33;8.40;99.90
20732;DHT22;10527;52.124;5.196;2023-03-04T13:56:55;8.10;99.90
20732;DHT22;10527;52.124;5.196;2023-03-04T14:06:44;8.00;99.90
20732;DHT22;10527;52.124;5.196;2023-03-04T14:09:22;7.90;99.90
20732;DHT22;10527;52.124;5.196;2023-03-04T14:11:56;7.80;99.90
20732;DHT22;10527;52.124;5.196;2023-03-04T14:14:49;7.70;99.90
20732;DHT22;10527;52.124;5.196;2023-03-04T14:17:28;7.60;99.90
20732;DHT22;10527;52.124;5.196;2023-03-04T14:19:58;7.60;99.90
20732;DHT22;10527;52.124;5.196;2023-03-04T14:22:32;7.80;99.90
20732;DHT22;10527;52.124;5.196;2023-03-04T14:25:28;7.80;99.90
20732;DHT22;10527;52.124;5.196;2023-03-04T14:28:12;7.80;99.90
20732;DHT22;10527;52.124;5.196;2023-03-04T14:30:49;7.70;99.90
20732;DHT22;10527;52.124;5.196;2023-03-04T14:33:27;7.80;99.90
20732;DHT22;10527;52.124;5.196;2023-03-04T14:35:58;7.90;99.90
20732;DHT22;10527;52.124;5.196;2023-03-04T14:38:33;8.00;99.90
20732;DHT22;10527;52.124;5.196;2023-03-04T14:41:07;8.10;99.90
20732;DHT22;10527;52.124;5.196;2023-03-04T14:47:09;8.10;99.90
20732;DHT22;10527;52.124;5.196;2023-03-04T14:49:39;8.10;99.90
20732;DHT22;10527;52.124;5.196;2023-03-04T14:52:46;7.90;99.90
20732;DHT22;10527;52.124;5.196;2023-03-04T14:55:20;7.80;99.90
20732;DHT22;10527;52.124;5.196;2023-03-04T14:58:22;7.80;99.90
20732;DHT22;10527;52.124;5.196;2023-03-04T15:01:12;7.70;99.90
20732;DHT22;10527;52.124;5.196;2023-03-04T15:04:02;7.60;99.90
20732;DHT22;10527;52.124;5.196;2023-03-04T15:06:48;7.40;99.90
20732;DHT22;10527;52.124;5.196;2023-03-04T15:09:23;7.30;99.90
20732;DHT22;10527;52.124;5.196;2023-03-04T15:12:03;7.30;99.90
20732;DHT22;10527;52.124;5.196;2023-03-04T15:14:55;7.20;99.90
20732;DHT22;10527;52.124;5.196;2023-03-04T15:22:55;7.20;99.90
20732;DHT22;10527;52.124;5.196;2023-03-04T15:25:24;7.20;99.90
20732;DHT22;10527;52.124;5.196;2023-03-04T15:27:55;7.30;99.90
20732;DHT22;10527;52.124;5.196;2023-03-04T15:30:28;7.30;99.90
20732;DHT22;10527;52.124;5.196;2023-03-04T15:32:58;7.40;99.90
20732;DHT22;10527;52.124;5.196;2023-03-04T15:35:28;7.50;99.90
20732;DHT22;10527;52.124;5.196;2023-03-04T15:37:57;7.50;99.90
20732;DHT22;10527;52.124;5.196;2023-03-04T15:40:33;7.60;99.90
20732;DHT22;10527;52.124;5.196;2023-03-04T15:43:05;7.70;99.90
20732;DHT22;10527;52.124;5.196;2023-03-04T15:45:35;7.70;99.90
20732;DHT22;10527;52.124;5.196;2023-03-04T15:48:05;7.60;99.90
20732;DHT22;10527;52.124;5.196;2023-03-04T15:50:39;7.60;99.90
20732;DHT22;10527;52.124;5.196;2023-03-04T15:53:14;7.70;99.90
20732;DHT22;10527;52.124;5.196;2023-03-04T15:55:45;7.70;99.90
20732;DHT22;10527;52.124;5.196;2023-03-04T15:58:13;7.60;99.90
20732;DHT22;10527;52.124;5.196;2023-03-04T16:00:44;7.50;99.90
20732;DHT22;10527;52.124;5.196;2023-03-04T16:03:19;7.60;99.90
20732;DHT22;10527;52.124;5.196;2023-03-04T16:05:49;7.70;99.90
20732;DHT22;10527;52.124;5.196;2023-03-04T16:08:19;7.50;99.90
20732;DHT22;10527;52.124;5.196;2023-03-04T16:10:47;7.50;99.90
20732;DHT22;10527;52.124;5.196;2023-03-04T16:13:20;7.60;99.90
20732;DHT22;10527;52.124;5.196;2023-03-04T16:15:49;7.50;99.90
20732;DHT22;10527;52.124;5.196;2023-03-04T16:18:16;7.50;99.90
20732;DHT22;10527;52.124;5.196;2023-03-04T16:20:45;7.60;99.90
20732;DHT22;10527;52.124;5.196;2023-03-04T16:23:17;7.60;99.90
20732;DHT22;10527;52.124;5.196;2023-03-04T16:25:52;7.50;99.90
20732;DHT22;10527;52.124;5.196;2023-03-04T16:28:21;7.50;99.90
20732;DHT22;10527;52.124;5.196;2023-03-04T16:30:48;7.50;99.90
20732;DHT22;10527;52.124;5.196;2023-03-04T16:33:15;7.50;99.90
20732;DHT22;10527;52.124;5.196;2023-03-04T16:35:43;7.40;99.90
20732;DHT22;10527;52.124;5.196;2023-03-04T16:38:22;7.40;99.90
20732;DHT22;10527;52.124;5.196;2023-03-04T16:40:54;7.60;99.90
20732;DHT22;10527;52.124;5.196;2023-03-04T16:43:25;7.60;99.90
20732;DHT22;10527;52.124;5.196;2023-03-04T16:45:51;7.60;99.90
20732;DHT22;10527;52.124;5.196;2023-03-04T16:48:18;7.60;99.90
20732;DHT22;10527;52.124;5.196;2023-03-04T16:50:50;7.60;99.90
20732;DHT22;10527;52.124;5.196;2023-03-04T16:53:31;7.50;99.90
20732;DHT22;10527;52.124;5.196;2023-03-04T16:56:04;7.50;99.90
20732;DHT22;10527;52.124;5.196;2023-03-04T16:58:38;7.50;99.90
20732;DHT22;10527;52.124;5.196;2023-03-04T17:01:05;7.50;99.90
20732;DHT22;10527;52.124;5.196;2023-03-04T17:03:37;7.50;99.90
20732;DHT22;10527;52.124;5.196;2023-03-04T17:06:04;7.40;99.90
20732;DHT22;10527;52.124;5.196;2023-03-04T17:08:31;7.30;99.90
20732;DHT22;10527;52.124;5.196;2023-03-04T17:10:58;7.30;99.90
20732;DHT22;10527;52.124;5.196;2023-03-04T17:13:25;7.20;99.90
20732;DHT22;10527;52.124;5.196;2023-03-04T17:15:52;7.20;99.90
20732;DHT22;10527;52.124;5.196;2023-03-04T17:18:19;7.20;99.90
20732;DHT22;10527;52.124;5.196;2023-03-04T17:20:45;7.20;99.90
20732;DHT22;10527;52.124;5.196;2023-03-04T17:23:12;7.20;99.90
20732;DHT22;10527;52.124;5.196;2023-03-04T17:25:39;7.20;99.90
20732;DHT22;10527;52.124;5.196;2023-03-04T17:28:06;7.30;99.90
20732;DHT22;10527;52.124;5.196;2023-03-04T17:30:32;7.30;99.90
20732;DHT22;10527;52.124;5.196;2023-03-04T17:32:59;7.20;99.90
20732;DHT22;10527;52.124;5.196;2023-03-04T17:35:26;7.20;99.90
20732;DHT22;10527;52.124;5.196;2023-03-04T17:37:53;7.30;99.90
20732;DHT22;10527;52.124;5.196;2023-03-04T17:40:20;7.30;99.90
20732;DHT22;10527;52.124;5.196;2023-03-04T17:42:46;7.30;99.90
20732;DHT22;10527;52.124;5.196;2023-03-04T17:45:16;7.20;99.90
20732;DHT22;10527;52.124;5.196;2023-03-04T17:47:42;7.10;99.90
20732;DHT22;10527;52.124;5.196;2023-03-04T17:50:12;7.10;99.90
20732;DHT22;10527;52.124;5.196;2023-03-04T17:52:39;7.10;99.90
20732;DHT22;10527;52.124;5.196;2023-03-04T17:55:06;7.00;99.90
20732;DHT22;10527;52.124;5.196;2023-03-04T17:57:39;7.00;99.90
20732;DHT22;10527;52.124;5.196;2023-03-04T18:00:06;6.90;99.90
20732;DHT22;10527;52.124;5.196;2023-03-04T18:02:33;6.90;99.90
20732;DHT22;10527;52.124;5.196;2023-03-04T18:05:03;6.90;99.90
20732;DHT22;10527;52.124;5.196;2023-03-04T18:07:33;7.00;99.90
20732;DHT22;10527;52.124;5.196;2023-03-04T18:10:00;6.90;99.90
20732;DHT22;10527;52.124;5.196;2023-03-04T18:12:27;6.90;99.90
20732;DHT22;10527;52.124;5.196;2023-03-04T18:14:54;6.90;99.90
20732;DHT22;10527;52.124;5.196;2023-03-04T18:17:20;6.90;99.90
20732;DHT22;10527;52.124;5.196;2023-03-04T18:19:47;6.90;99.90